sensor_id;sensor_type;location;lat;lon;timestamp;temperature;humidity
26595;DHT22;14238;49.496;8.154;2022-09-30T00:00:16;7.90;99.90
26595;DHT22;14238;49.496;8.154;2022-09-30T00:02:42;7.90;99.90
26595;DHT22;14238;49.496;8.154;2022-09-30T00:05:07;8.00;99.90
26595;DHT22;14238;49.496;8.154;2022-09-30T00:07:33;8.00;99.90
26595;DHT22;14238;49.496;8.154;2022-09-30T00:09:59;8.00;99.90
26595;DHT22;14238;49.496;8.154;2022-09-30T00:12:24;8.00;99.90
26595;DHT22;14238;49.496;8.154;2022-09-30T00:14:52;8.00;99.90
26595;DHT22;14238;49.496;8.154;2022-09-30T00:17:18;8.10;99.90
26595;DHT22;14238;49.496;8.154;2022-09-30T00:19:43;8.10;99.90
26595;DHT22;14238;49.496;8.154;2022-09-30T00:22:09;8.10;99.90
26595;DHT22;14238;49.496;8.154;2022-09-30T00:24:35;8.10;99.90
26595;DHT22;14238;49.496;8.154;2022-09-30T00:27:00;8.10;99.90
26595;DHT22;14238;49.496;8.154;2022-09-30T00:29:26;8.10;99.90
26595;DHT22;14238;49.496;8.154;2022-09-30T00:31:51;8.10;99.90
26595;DHT22;14238;49.496;8.154;2022-09-30T00:34:17;8.00;99.90
26595;DHT22;14238;49.496;8.154;2022-09-30T00:36:49;8.00;99.90
26595;DHT22;14238;49.496;8.154;2022-09-30T00:39:18;8.10;99.90
26595;DHT22;14238;49.496;8.154;2022-09-30T00:41:46;8.00;99.90
26595;DHT22;14238;49.496;8.154;2022-09-30T00:47:32;8.00;99.90
26595;DHT22;14238;49.496;8.154;2022-09-30T00:50:04;8.00;99.90
26595;DHT22;14238;49.496;8.154;2022-09-30T00:52:30;8.00;99.90
26595;DHT22;14238;49.496;8.154;2022-09-30T00:54:57;8.00;99.90
26595;DHT22;14238;49.496;8.154;2022-09-30T00:57:24;8.00;99.90
26595;DHT22;14238;49.496;8.154;2022-09-30T00:59:51;7.90;99.90
26595;DHT22;14238;49.496;8.154;2022-09-30T01:02:16;7.90;99.90
26595;DHT22;14238;49.496;8.154;2022-09-30T01:04:43;7.90;99.90
26595;DHT22;14238;49.496;8.154;2022-09-30T01:07:10;7.90;99.90
26595;DHT22;14238;49.496;8.154;2022-09-30T01:09:40;7.90;99.90
26595;DHT22;14238;49.496;8.154;2022-09-30T01:12:13;7.90;99.90
26595;DHT22;14238;49.496;8.154;2022-09-30T01:14:40;7.90;99.90
26595;DHT22;14238;49.496;8.154;2022-09-30T01:23:06;8.10;99.90
26595;DHT22;14238;49.496;8.154;2022-09-30T01:28:45;8.20;99.90
26595;DHT22;14238;49.496;8.154;2022-09-30T01:31:18;8.20;99.90
26595;DHT22;14238;49.496;8.154;2022-09-30T01:43:01;8.00;99.90
26595;DHT22;14238;49.496;8.154;2022-09-30T01:45:34;7.90;99.90
26595;DHT22;14238;49.496;8.154;2022-09-30T01:53:48;7.80;99.90
26595;DHT22;14238;49.496;8.154;2022-09-30T01:57:04;7.70;99.90
26595;DHT22;14238;49.496;8.154;2022-09-30T01:59:27;7.60;99.90
26595;DHT22;14238;49.496;8.154;2022-09-30T02:02:15;7.60;99.90
26595;DHT22;14238;49.496;8.154;2022-09-30T02:04:59;7.60;99.90
26595;DHT22;14238;49.496;8.154;2022-09-30T02:07:56;7.50;99.90
26595;DHT22;14238;49.496;8.154;2022-09-30T02:10:37;7.50;99.90
26595;DHT22;14238;49.496;8.154;2022-09-30T02:14:17;7.40;99.90
26595;DHT22;14238;49.496;8.154;2022-09-30T02:16:23;7.40;99.90
26595;DHT22;14238;49.496;8.154;2022-09-30T02:18:54;7.20;99.90
26595;DHT22;14238;49.496;8.154;2022-09-30T02:21:26;7.20;99.90
26595;DHT22;14238;49.496;8.154;2022-09-30T02:23:59;7.30;99.90
26595;DHT22;14238;49.496;8.154;2022-09-30T02:26:33;7.20;99.90
26595;DHT22;14238;49.496;8.154;2022-09-30T02:29:06;7.10;99.90
26595;DHT22;14238;49.496;8.154;2022-09-30T02:31:35;7.00;99.90
26595;DHT22;14238;49.496;8.154;2022-09-30T02:34:27;7.10;99.90
26595;DHT22;14238;49.496;8.154;2022-09-30T02:39:32;6.90;99.90
26595;DHT22;14238;49.496;8.154;2022-09-30T02:42:08;6.70;99.90
26595;DHT22;14238;49.496;8.154;2022-09-30T02:44:37;6.70;99.90
26595;DHT22;14238;49.496;8.154;2022-09-30T02:47:25;6.60;99.90
26595;DHT22;14238;49.496;8.154;2022-09-30T02:52:48;6.50;99.90
26595;DHT22;14238;49.496;8.154;2022-09-30T02:55:22;6.50;99.90
26595;DHT22;14238;49.496;8.154;2022-09-30T02:58:13;6.50;99.90
26595;DHT22;14238;49.496;8.154;2022-09-30T03:00:39;6.40;99.90
26595;DHT22;14238;49.496;8.154;2022-09-30T03:03:15;6.40;99.90
26595;DHT22;14238;49.496;8.154;2022-09-30T03:05:42;6.40;99.90
26595;DHT22;14238;49.496;8.154;2022-09-30T03:08:09;6.30;99.90
26595;DHT22;14238;49.496;8.154;2022-09-30T03:10:35;6.30;99.90
26595;DHT22;14238;49.496;8.154;2022-09-30T03:13:15;6.20;99.90
26595;DHT22;14238;49.496;8.154;2022-09-30T03:16:13;6.20;99.90
26595;DHT22;14238;49.496;8.154;2022-09-30T03:21:54;6.30;99.90
26595;DHT22;14238;49.496;8.154;2022-09-30T03:24:35;6.30;99.90
26595;DHT22;14238;49.496;8.154;2022-09-30T03:27:18;6.10;99.90
26595;DHT22;14238;49.496;8.154;2022-09-30T03:35:25;6.30;99.90
26595;DHT22;14238;49.496;8.154;2022-09-30T03:38:44;6.20;99.90
26595;DHT22;14238;49.496;8.154;2022-09-30T03:41:10;6.20;99.90
26595;DHT22;14238;49.496;8.154;2022-09-30T03:46:45;6.10;99.90
26595;DHT22;14238;49.496;8.154;2022-09-30T03:49:16;6.00;99.90
26595;DHT22;14238;49.496;8.154;2022-09-30T03:51:44;6.00;99.90
26595;DHT22;14238;49.496;8.154;2022-09-30T03:54:12;6.00;99.90
26595;DHT22;14238;49.496;8.154;2022-09-30T03:56:38;5.90;99.90
26595;DHT22;14238;49.496;8.154;2022-09-30T03:59:26;5.90;99.90
26595;DHT22;14238;49.496;8.154;2022-09-30T04:01:55;5.90;99.90
26595;DHT22;14238;49.496;8.154;2022-09-30T04:04:23;5.80;99.90
26595;DHT22;14238;49.496;8.154;2022-09-30T04:06:49;5.70;99.90
26595;DHT22;14238;49.496;8.154;2022-09-30T04:09:15;5.70;99.90
26595;DHT22;14238;49.496;8.154;2022-09-30T04:11:40;5.70;99.90
26595;DHT22;14238;49.496;8.154;2022-09-30T04:14:07;5.70;99.90
26595;DHT22;14238;49.496;8.154;2022-09-30T04:16:33;5.70;99.90
26595;DHT22;14238;49.496;8.154;2022-09-30T04:18:58;5.70;99.90
26595;DHT22;14238;49.496;8.154;2022-09-30T04:21:24;5.60;99.90
26595;DHT22;14238;49.496;8.154;2022-09-30T04:23:53;5.60;99.90
26595;DHT22;14238;49.496;8.154;2022-09-30T04:26:19;5.60;99.90
26595;DHT22;14238;49.496;8.154;2022-09-30T04:28:45;5.60;99.90
26595;DHT22;14238;49.496;8.154;2022-09-30T04:31:11;5.60;99.90
26595;DHT22;14238;49.496;8.154;2022-09-30T04:33:38;5.60;99.90
26595;DHT22;14238;49.496;8.154;2022-09-30T04:36:04;5.60;99.90
26595;DHT22;14238;49.496;8.154;2022-09-30T04:38:30;5.50;99.90
26595;DHT22;14238;49.496;8.154;2022-09-30T04:40:56;5.60;99.90
26595;DHT22;14238;49.496;8.154;2022-09-30T04:43:23;5.60;99.90
26595;DHT22;14238;49.496;8.154;2022-09-30T04:45:49;5.50;99.90
26595;DHT22;14238;49.496;8.154;2022-09-30T04:48:17;5.50;99.90
26595;DHT22;14238;49.496;8.154;2022-09-30T04:50:43;5.50;99.90
26595;DHT22;14238;49.496;8.154;2022-09-30T04:53:11;5.60;99.90
26595;DHT22;14238;49.496;8.154;2022-09-30T04:55:37;5.50;99.90
26595;DHT22;14238;49.496;8.154;2022-09-30T04:58:03;5.50;99.90
26595;DHT22;14238;49.496;8.154;2022-09-30T05:00:28;5.50;99.90
26595;DHT22;14238;49.496;8.154;2022-09-30T05:02:54;5.50;99.90
26595;DHT22;14238;49.496;8.154;2022-09-30T05:05:19;5.40;99.90
26595;DHT22;14238;49.496;8.154;2022-09-30T05:07:45;5.40;99.90
26595;DHT22;14238;49.496;8.154;2022-09-30T05:10:11;5.40;99.90
26595;DHT22;14238;49.496;8.154;2022-09-30T05:12:38;5.40;99.90
26595;DHT22;14238;49.496;8.154;2022-09-30T05:15:05;5.40;99.90
26595;DHT22;14238;49.496;8.154;2022-09-30T05:17:31;5.40;99.90
26595;DHT22;14238;49.496;8.154;2022-09-30T05:19:57;5.40;99.90
26595;DHT22;14238;49.496;8.154;2022-09-30T05:22:23;5.30;99.90
26595;DHT22;14238;49.496;8.154;2022-09-30T05:24:53;5.30;99.90
26595;DHT22;14238;49.496;8.154;2022-09-30T05:27:21;5.30;99.90
26595;DHT22;14238;49.496;8.154;2022-09-30T05:29:47;5.40;99.90
26595;DHT22;14238;49.496;8.154;2022-09-30T05:32:12;5.40;99.90
26595;DHT22;14238;49.496;8.154;2022-09-30T05:34:38;5.40;99.90
26595;DHT22;14238;49.496;8.154;2022-09-30T05:37:04;5.50;99.90
26595;DHT22;14238;49.496;8.154;2022-09-30T05:39:30;5.50;99.90
26595;DHT22;14238;49.496;8.154;2022-09-30T05:41:57;5.50;99.90
26595;DHT22;14238;49.496;8.154;2022-09-30T05:44:23;5.50;99.90
26595;DHT22;14238;49.496;8.154;2022-09-30T05:46:48;5.70;99.90
26595;DHT22;14238;49.496;8.154;2022-09-30T05:49:14;5.70;99.90
26595;DHT22;14238;49.496;8.154;2022-09-30T05:51:39;5.80;99.90
26595;DHT22;14238;49.496;8.154;2022-09-30T05:54:05;5.90;99.90
26595;DHT22;14238;49.496;8.154;2022-09-30T05:56:31;5.90;99.90
26595;DHT22;14238;49.496;8.154;2022-09-30T05:58:59;6.00;99.90
26595;DHT22;14238;49.496;8.154;2022-09-30T06:01:24;6.00;99.90
26595;DHT22;14238;49.496;8.154;2022-09-30T06:03:50;6.10;99.90
26595;DHT22;14238;49.496;8.154;2022-09-30T06:06:16;6.10;99.90
26595;DHT22;14238;49.496;8.154;2022-09-30T06:08:43;6.20;99.90
26595;DHT22;14238;49.496;8.154;2022-09-30T06:11:12;6.30;99.90
26595;DHT22;14238;49.496;8.154;2022-09-30T06:13:39;6.40;99.90
26595;DHT22;14238;49.496;8.154;2022-09-30T06:16:07;6.40;99.90
26595;DHT22;14238;49.496;8.154;2022-09-30T06:18:33;6.50;99.90
26595;DHT22;14238;49.496;8.154;2022-09-30T06:21:00;6.60;99.90
26595;DHT22;14238;49.496;8.154;2022-09-30T06:23:27;6.60;99.90
26595;DHT22;14238;49.496;8.154;2022-09-30T06:25:53;6.60;99.90
26595;DHT22;14238;49.496;8.154;2022-09-30T06:28:19;6.70;99.90
26595;DHT22;14238;49.496;8.154;2022-09-30T06:30:45;6.70;99.90
26595;DHT22;14238;49.496;8.154;2022-09-30T06:33:12;6.80;99.90
26595;DHT22;14238;49.496;8.154;2022-09-30T06:35:37;6.90;99.90
26595;DHT22;14238;49.496;8.154;2022-09-30T06:38:05;7.00;99.90
26595;DHT22;14238;49.496;8.154;2022-09-30T06:40:31;7.00;99.90
26595;DHT22;14238;49.496;8.154;2022-09-30T06:43:00;6.90;99.90
26595;DHT22;14238;49.496;8.154;2022-09-30T06:45:27;6.90;99.90
26595;DHT22;14238;49.496;8.154;2022-09-30T06:47:57;7.00;99.90
26595;DHT22;14238;49.496;8.154;2022-09-30T06:50:23;7.00;99.90
26595;DHT22;14238;49.496;8.154;2022-09-30T06:52:48;7.10;99.90
26595;DHT22;14238;49.496;8.154;2022-09-30T06:55:19;7.10;99.90
26595;DHT22;14238;49.496;8.154;2022-09-30T06:57:45;7.20;99.90
26595;DHT22;14238;49.496;8.154;2022-09-30T07:00:12;7.30;99.90
26595;DHT22;14238;49.496;8.154;2022-09-30T07:02:38;7.20;99.90
26595;DHT22;14238;49.496;8.154;2022-09-30T07:05:04;7.20;99.90
26595;DHT22;14238;49.496;8.154;2022-09-30T07:07:30;7.20;99.90
26595;DHT22;14238;49.496;8.154;2022-09-30T07:09:58;7.30;99.90
26595;DHT22;14238;49.496;8.154;2022-09-30T07:12:24;7.30;99.90
26595;DHT22;14238;49.496;8.154;2022-09-30T07:14:50;7.30;99.90
26595;DHT22;14238;49.496;8.154;2022-09-30T07:17:16;7.30;99.90
26595;DHT22;14238;49.496;8.154;2022-09-30T07:19:41;7.40;99.90
26595;DHT22;14238;49.496;8.154;2022-09-30T07:22:07;7.60;99.90
26595;DHT22;14238;49.496;8.154;2022-09-30T07:24:52;7.60;99.90
26595;DHT22;14238;49.496;8.154;2022-09-30T07:27:17;7.80;99.90
26595;DHT22;14238;49.496;8.154;2022-09-30T07:29:43;8.00;99.90
26595;DHT22;14238;49.496;8.154;2022-09-30T07:32:10;8.10;99.90
26595;DHT22;14238;49.496;8.154;2022-09-30T07:34:36;8.30;99.90
26595;DHT22;14238;49.496;8.154;2022-09-30T07:37:02;8.40;99.90
26595;DHT22;14238;49.496;8.154;2022-09-30T07:39:28;8.40;99.90
26595;DHT22;14238;49.496;8.154;2022-09-30T07:41:54;8.50;99.90
26595;DHT22;14238;49.496;8.154;2022-09-30T07:44:19;8.70;99.90
26595;DHT22;14238;49.496;8.154;2022-09-30T07:46:45;8.90;99.90
26595;DHT22;14238;49.496;8.154;2022-09-30T07:49:15;8.90;99.90
26595;DHT22;14238;49.496;8.154;2022-09-30T07:51:48;9.00;99.90
26595;DHT22;14238;49.496;8.154;2022-09-30T07:54:17;9.10;99.90
26595;DHT22;14238;49.496;8.154;2022-09-30T07:56:44;9.20;99.90
26595;DHT22;14238;49.496;8.154;2022-09-30T07:59:11;9.10;99.90
26595;DHT22;14238;49.496;8.154;2022-09-30T08:01:37;9.10;99.90
26595;DHT22;14238;49.496;8.154;2022-09-30T08:04:05;9.00;99.90
26595;DHT22;14238;49.496;8.154;2022-09-30T08:06:36;9.00;99.90
26595;DHT22;14238;49.496;8.154;2022-09-30T08:09:02;9.00;99.90
26595;DHT22;14238;49.496;8.154;2022-09-30T08:11:33;9.10;99.90
26595;DHT22;14238;49.496;8.154;2022-09-30T08:13:59;9.10;99.90
26595;DHT22;14238;49.496;8.154;2022-09-30T08:16:25;9.20;99.90
26595;DHT22;14238;49.496;8.154;2022-09-30T08:18:55;9.20;99.90
26595;DHT22;14238;49.496;8.154;2022-09-30T08:21:21;9.30;99.90
26595;DHT22;14238;49.496;8.154;2022-09-30T08:23:47;9.40;99.90
26595;DHT22;14238;49.496;8.154;2022-09-30T08:26:13;9.40;99.90
26595;DHT22;14238;49.496;8.154;2022-09-30T08:28:40;9.50;99.90
26595;DHT22;14238;49.496;8.154;2022-09-30T08:31:11;9.90;99.90
26595;DHT22;14238;49.496;8.154;2022-09-30T08:33:38;10.90;99.90
26595;DHT22;14238;49.496;8.154;2022-09-30T08:36:13;12.00;99.90
26595;DHT22;14238;49.496;8.154;2022-09-30T08:38:39;13.10;99.90
26595;DHT22;14238;49.496;8.154;2022-09-30T08:44:43;14.00;99.90
26595;DHT22;14238;49.496;8.154;2022-09-30T08:47:29;15.00;99.90
26595;DHT22;14238;49.496;8.154;2022-09-30T08:52:42;15.00;99.90
26595;DHT22;14238;49.496;8.154;2022-09-30T08:55:17;14.20;99.90
26595;DHT22;14238;49.496;8.154;2022-09-30T08:57:44;13.90;99.90
26595;DHT22;14238;49.496;8.154;2022-09-30T09:00:13;14.20;99.90
26595;DHT22;14238;49.496;8.154;2022-09-30T09:02:57;14.70;99.90
26595;DHT22;14238;49.496;8.154;2022-09-30T09:05:46;16.40;99.90
26595;DHT22;14238;49.496;8.154;2022-09-30T09:11:37;16.70;99.90
26595;DHT22;14238;49.496;8.154;2022-09-30T09:14:31;17.10;99.90
26595;DHT22;14238;49.496;8.154;2022-09-30T09:19:46;18.20;99.90
26595;DHT22;14238;49.496;8.154;2022-09-30T09:22:13;17.90;99.90
26595;DHT22;14238;49.496;8.154;2022-09-30T09:24:49;18.10;99.90
26595;DHT22;14238;49.496;8.154;2022-09-30T09:27:48;18.40;99.90
26595;DHT22;14238;49.496;8.154;2022-09-30T09:30:19;18.90;99.90
26595;DHT22;14238;49.496;8.154;2022-09-30T09:32:51;19.30;99.90
26595;DHT22;14238;49.496;8.154;2022-09-30T09:36:11;19.40;99.90
26595;DHT22;14238;49.496;8.154;2022-09-30T09:38:46;19.70;99.90
26595;DHT22;14238;49.496;8.154;2022-09-30T09:41:33;19.70;99.90
26595;DHT22;14238;49.496;8.154;2022-09-30T09:44:01;20.60;99.90
26595;DHT22;14238;49.496;8.154;2022-09-30T09:49:28;20.10;99.90
26595;DHT22;14238;49.496;8.154;2022-09-30T09:54:28;18.80;99.90
26595;DHT22;14238;49.496;8.154;2022-09-30T09:57:03;19.60;99.90
26595;DHT22;14238;49.496;8.154;2022-09-30T09:59:29;19.50;99.90
26595;DHT22;14238;49.496;8.154;2022-09-30T10:01:55;19.70;99.90
26595;DHT22;14238;49.496;8.154;2022-09-30T10:04:29;20.20;99.90
26595;DHT22;14238;49.496;8.154;2022-09-30T10:06:59;20.60;99.90
26595;DHT22;14238;49.496;8.154;2022-09-30T10:09:29;21.20;99.80
26595;DHT22;14238;49.496;8.154;2022-09-30T10:14:31;20.70;98.20
26595;DHT22;14238;49.496;8.154;2022-09-30T10:17:02;20.40;97.70
26595;DHT22;14238;49.496;8.154;2022-09-30T10:19:31;20.60;99.90
26595;DHT22;14238;49.496;8.154;2022-09-30T10:24:32;20.30;98.90
26595;DHT22;14238;49.496;8.154;2022-09-30T10:26:58;20.70;99.80
26595;DHT22;14238;49.496;8.154;2022-09-30T10:29:34;20.70;96.30
26595;DHT22;14238;49.496;8.154;2022-09-30T10:32:01;20.50;96.50
26595;DHT22;14238;49.496;8.154;2022-09-30T10:34:33;21.20;95.60
26595;DHT22;14238;49.496;8.154;2022-09-30T10:37:06;20.70;96.60
26595;DHT22;14238;49.496;8.154;2022-09-30T10:39:34;20.30;98.60
26595;DHT22;14238;49.496;8.154;2022-09-30T10:42:15;20.30;98.00
26595;DHT22;14238;49.496;8.154;2022-09-30T10:44:45;20.10;98.20
26595;DHT22;14238;49.496;8.154;2022-09-30T10:47:17;20.20;97.50
26595;DHT22;14238;49.496;8.154;2022-09-30T10:50:02;20.60;96.90
26595;DHT22;14238;49.496;8.154;2022-09-30T10:52:39;20.20;97.40
26595;DHT22;14238;49.496;8.154;2022-09-30T10:55:33;18.80;99.00
26595;DHT22;14238;49.496;8.154;2022-09-30T10:58:37;19.50;99.90
26595;DHT22;14238;49.496;8.154;2022-09-30T11:01:39;20.50;99.30
26595;DHT22;14238;49.496;8.154;2022-09-30T11:04:33;21.30;97.40
26595;DHT22;14238;49.496;8.154;2022-09-30T11:16:00;21.70;95.00
26595;DHT22;14238;49.496;8.154;2022-09-30T11:18:34;22.00;95.70
26595;DHT22;14238;49.496;8.154;2022-09-30T11:21:09;22.50;96.20
26595;DHT22;14238;49.496;8.154;2022-09-30T11:24:24;22.30;95.10
26595;DHT22;14238;49.496;8.154;2022-09-30T11:26:39;22.60;94.60
26595;DHT22;14238;49.496;8.154;2022-09-30T11:31:37;22.30;95.40
26595;DHT22;14238;49.496;8.154;2022-09-30T11:42:08;21.80;97.60
26595;DHT22;14238;49.496;8.154;2022-09-30T11:44:39;20.30;96.20
26595;DHT22;14238;49.496;8.154;2022-09-30T11:52:58;19.40;99.90
26595;DHT22;14238;49.496;8.154;2022-09-30T11:55:44;19.00;99.90
26595;DHT22;14238;49.496;8.154;2022-09-30T11:58:16;18.30;99.90
26595;DHT22;14238;49.496;8.154;2022-09-30T12:00:47;17.90;99.90
26595;DHT22;14238;49.496;8.154;2022-09-30T12:03:34;17.30;99.90
26595;DHT22;14238;49.496;8.154;2022-09-30T12:06:32;16.70;99.90
26595;DHT22;14238;49.496;8.154;2022-09-30T12:09:15;16.40;99.90
26595;DHT22;14238;49.496;8.154;2022-09-30T12:12:21;16.20;99.90
26595;DHT22;14238;49.496;8.154;2022-09-30T12:14:44;16.70;99.90
26595;DHT22;14238;49.496;8.154;2022-09-30T12:17:20;17.80;99.90
26595;DHT22;14238;49.496;8.154;2022-09-30T12:19:52;17.60;99.90
26595;DHT22;14238;49.496;8.154;2022-09-30T12:22:29;17.30;99.90
26595;DHT22;14238;49.496;8.154;2022-09-30T12:24:55;17.00;99.90
26595;DHT22;14238;49.496;8.154;2022-09-30T12:27:33;16.90;99.90
26595;DHT22;14238;49.496;8.154;2022-09-30T12:30:02;16.70;99.90
26595;DHT22;14238;49.496;8.154;2022-09-30T12:41:47;16.00;99.90
26595;DHT22;14238;49.496;8.154;2022-09-30T12:49:48;15.80;99.90
26595;DHT22;14238;49.496;8.154;2022-09-30T12:52:17;15.50;99.90
26595;DHT22;14238;49.496;8.154;2022-09-30T12:54:52;15.50;99.90
26595;DHT22;14238;49.496;8.154;2022-09-30T12:57:23;15.60;99.90
26595;DHT22;14238;49.496;8.154;2022-09-30T13:00:17;15.60;99.90
26595;DHT22;14238;49.496;8.154;2022-09-30T13:02:47;15.40;99.90
26595;DHT22;14238;49.496;8.154;2022-09-30T13:15:45;15.60;99.90
26595;DHT22;14238;49.496;8.154;2022-09-30T13:23:44;19.90;99.90
26595;DHT22;14238;49.496;8.154;2022-09-30T13:29:32;19.30;99.90
26595;DHT22;14238;49.496;8.154;2022-09-30T13:32:03;18.80;99.90
26595;DHT22;14238;49.496;8.154;2022-09-30T13:34:46;18.20;99.90
26595;DHT22;14238;49.496;8.154;2022-09-30T13:37:34;18.40;99.90
26595;DHT22;14238;49.496;8.154;2022-09-30T13:39:59;16.90;99.90
26595;DHT22;14238;49.496;8.154;2022-09-30T13:42:35;16.60;99.90
26595;DHT22;14238;49.496;8.154;2022-09-30T13:45:24;16.50;99.90
26595;DHT22;14238;49.496;8.154;2022-09-30T13:48:01;16.00;99.90
26595;DHT22;14238;49.496;8.154;2022-09-30T13:50:42;16.20;99.90
26595;DHT22;14238;49.496;8.154;2022-09-30T13:53:35;16.40;99.90
26595;DHT22;14238;49.496;8.154;2022-09-30T13:56:08;16.00;99.90
26595;DHT22;14238;49.496;8.154;2022-09-30T14:01:49;16.00;99.90
26595;DHT22;14238;49.496;8.154;2022-09-30T14:12:17;16.00;99.90
26595;DHT22;14238;49.496;8.154;2022-09-30T14:18:01;16.90;99.90
26595;DHT22;14238;49.496;8.154;2022-09-30T14:23:14;16.60;99.90
26595;DHT22;14238;49.496;8.154;2022-09-30T14:28:50;16.80;99.90
26595;DHT22;14238;49.496;8.154;2022-09-30T14:31:18;16.70;99.90
26595;DHT22;14238;49.496;8.154;2022-09-30T14:33:46;16.60;99.90
26595;DHT22;14238;49.496;8.154;2022-09-30T14:36:16;17.00;99.90
26595;DHT22;14238;49.496;8.154;2022-09-30T14:38:45;17.70;99.90
26595;DHT22;14238;49.496;8.154;2022-09-30T14:41:22;17.30;99.90
26595;DHT22;14238;49.496;8.154;2022-09-30T14:43:59;17.10;99.90
26595;DHT22;14238;49.496;8.154;2022-09-30T14:46:37;16.80;99.90
26595;DHT22;14238;49.496;8.154;2022-09-30T14:49:06;16.90;99.90
26595;DHT22;14238;49.496;8.154;2022-09-30T14:51:38;17.20;99.90
26595;DHT22;14238;49.496;8.154;2022-09-30T14:56:43;17.80;99.90
26595;DHT22;14238;49.496;8.154;2022-09-30T14:59:23;18.50;99.90
26595;DHT22;14238;49.496;8.154;2022-09-30T15:01:54;18.90;99.90
26595;DHT22;14238;49.496;8.154;2022-09-30T15:04:49;19.10;99.90
26595;DHT22;14238;49.496;8.154;2022-09-30T15:07:15;18.90;99.90
26595;DHT22;14238;49.496;8.154;2022-09-30T15:09:42;18.70;99.90
26595;DHT22;14238;49.496;8.154;2022-09-30T15:12:21;18.50;99.90
26595;DHT22;14238;49.496;8.154;2022-09-30T15:14:55;18.40;99.90
26595;DHT22;14238;49.496;8.154;2022-09-30T15:19:48;18.00;99.90
26595;DHT22;14238;49.496;8.154;2022-09-30T15:22:15;17.90;99.90
26595;DHT22;14238;49.496;8.154;2022-09-30T15:24:42;17.80;99.90
26595;DHT22;14238;49.496;8.154;2022-09-30T15:27:28;17.70;99.90
26595;DHT22;14238;49.496;8.154;2022-09-30T15:29:59;17.60;99.90
26595;DHT22;14238;49.496;8.154;2022-09-30T15:32:27;17.50;99.90
26595;DHT22;14238;49.496;8.154;2022-09-30T15:34:54;17.60;99.90
26595;DHT22;14238;49.496;8.154;2022-09-30T15:37:24;17.70;99.90
26595;DHT22;14238;49.496;8.154;2022-09-30T15:39:51;17.30;99.90
26595;DHT22;14238;49.496;8.154;2022-09-30T15:45:30;16.80;99.90
26595;DHT22;14238;49.496;8.154;2022-09-30T15:47:58;16.40;99.90
26595;DHT22;14238;49.496;8.154;2022-09-30T15:53:24;15.90;99.90
26595;DHT22;14238;49.496;8.154;2022-09-30T15:55:55;15.60;99.90
26595;DHT22;14238;49.496;8.154;2022-09-30T15:58:37;15.10;99.90
26595;DHT22;14238;49.496;8.154;2022-09-30T16:01:20;15.00;99.90
26595;DHT22;14238;49.496;8.154;2022-09-30T16:03:58;14.70;99.90
26595;DHT22;14238;49.496;8.154;2022-09-30T16:08:58;14.20;99.90
26595;DHT22;14238;49.496;8.154;2022-09-30T16:11:35;13.80;99.90
26595;DHT22;14238;49.496;8.154;2022-09-30T16:14:03;13.80;99.90
26595;DHT22;14238;49.496;8.154;2022-09-30T16:16:32;13.50;99.90
26595;DHT22;14238;49.496;8.154;2022-09-30T16:18:59;13.40;99.90
26595;DHT22;14238;49.496;8.154;2022-09-30T16:21:40;13.40;99.90
26595;DHT22;14238;49.496;8.154;2022-09-30T16:26:49;13.30;99.90
26595;DHT22;14238;49.496;8.154;2022-09-30T16:29:15;13.20;99.90
26595;DHT22;14238;49.496;8.154;2022-09-30T16:31:42;12.80;99.90
26595;DHT22;14238;49.496;8.154;2022-09-30T16:34:22;12.70;99.90
26595;DHT22;14238;49.496;8.154;2022-09-30T16:36:49;12.50;99.90
26595;DHT22;14238;49.496;8.154;2022-09-30T16:39:15;12.70;99.90
26595;DHT22;14238;49.496;8.154;2022-09-30T16:41:42;12.60;99.90
26595;DHT22;14238;49.496;8.154;2022-09-30T16:44:11;12.40;99.90
26595;DHT22;14238;49.496;8.154;2022-09-30T16:46:37;12.30;99.90
26595;DHT22;14238;49.496;8.154;2022-09-30T16:49:14;12.30;99.90
26595;DHT22;14238;49.496;8.154;2022-09-30T16:51:40;12.10;99.90
26595;DHT22;14238;49.496;8.154;2022-09-30T16:54:06;12.10;99.90
26595;DHT22;14238;49.496;8.154;2022-09-30T16:56:32;12.10;99.90
26595;DHT22;14238;49.496;8.154;2022-09-30T16:58:58;11.90;99.90
26595;DHT22;14238;49.496;8.154;2022-09-30T17:01:24;11.80;99.90
26595;DHT22;14238;49.496;8.154;2022-09-30T17:03:52;11.70;99.90
26595;DHT22;14238;49.496;8.154;2022-09-30T17:06:24;11.70;99.90
26595;DHT22;14238;49.496;8.154;2022-09-30T17:08:51;11.50;99.90
26595;DHT22;14238;49.496;8.154;2022-09-30T17:11:18;11.60;99.90
26595;DHT22;14238;49.496;8.154;2022-09-30T17:13:44;11.20;99.90
26595;DHT22;14238;49.496;8.154;2022-09-30T17:16:11;11.00;99.90
26595;DHT22;14238;49.496;8.154;2022-09-30T17:18:36;11.10;99.90
26595;DHT22;14238;49.496;8.154;2022-09-30T17:21:02;11.00;99.90
26595;DHT22;14238;49.496;8.154;2022-09-30T17:23:28;10.80;99.90
26595;DHT22;14238;49.496;8.154;2022-09-30T17:25:54;10.80;99.90
26595;DHT22;14238;49.496;8.154;2022-09-30T17:28:19;10.70;99.90
26595;DHT22;14238;49.496;8.154;2022-09-30T17:30:46;10.70;99.90
26595;DHT22;14238;49.496;8.154;2022-09-30T17:33:16;10.60;99.90
26595;DHT22;14238;49.496;8.154;2022-09-30T17:35:42;10.60;99.90
26595;DHT22;14238;49.496;8.154;2022-09-30T17:38:10;10.50;99.90
26595;DHT22;14238;49.496;8.154;2022-09-30T17:40:36;10.50;99.90
26595;DHT22;14238;49.496;8.154;2022-09-30T17:43:20;10.40;99.90
26595;DHT22;14238;49.496;8.154;2022-09-30T17:45:46;10.20;99.90
26595;DHT22;14238;49.496;8.154;2022-09-30T17:48:14;10.20;99.90
26595;DHT22;14238;49.496;8.154;2022-09-30T17:50:43;10.30;99.90
26595;DHT22;14238;49.496;8.154;2022-09-30T17:53:13;10.20;99.90
26595;DHT22;14238;49.496;8.154;2022-09-30T17:55:41;10.10;99.90
26595;DHT22;14238;49.496;8.154;2022-09-30T17:58:08;10.10;99.90
26595;DHT22;14238;49.496;8.154;2022-09-30T18:00:35;10.00;99.90
26595;DHT22;14238;49.496;8.154;2022-09-30T18:03:01;10.00;99.90
26595;DHT22;14238;49.496;8.154;2022-09-30T18:05:27;9.90;99.90
26595;DHT22;14238;49.496;8.154;2022-09-30T18:07:53;9.90;99.90
26595;DHT22;14238;49.496;8.154;2022-09-30T18:10:19;9.90;99.90
26595;DHT22;14238;49.496;8.154;2022-09-30T18:12:45;9.70;99.90
26595;DHT22;14238;49.496;8.154;2022-09-30T18:15:14;9.60;99.90
26595;DHT22;14238;49.496;8.154;2022-09-30T18:17:41;9.60;99.90
26595;DHT22;14238;49.496;8.154;2022-09-30T18:20:07;9.50;99.90
26595;DHT22;14238;49.496;8.154;2022-09-30T18:22:32;9.50;99.90
26595;DHT22;14238;49.496;8.154;2022-09-30T18:24:58;9.40;99.90
26595;DHT22;14238;49.496;8.154;2022-09-30T18:27:42;9.40;99.90
26595;DHT22;14238;49.496;8.154;2022-09-30T18:30:08;9.40;99.90
26595;DHT22;14238;49.496;8.154;2022-09-30T18:32:34;9.40;99.90
26595;DHT22;14238;49.496;8.154;2022-09-30T18:35:00;9.40;99.90
26595;DHT22;14238;49.496;8.154;2022-09-30T18:37:27;9.30;99.90
26595;DHT22;14238;49.496;8.154;2022-09-30T18:39:53;9.50;99.90
26595;DHT22;14238;49.496;8.154;2022-09-30T18:42:18;9.40;99.90
26595;DHT22;14238;49.496;8.154;2022-09-30T18:44:47;9.30;99.90
26595;DHT22;14238;49.496;8.154;2022-09-30T18:47:13;9.20;99.90